Time;durP1;ratioP1;P1;durP2;ratioP2;P2;SDS_P1;SDS_P2;PMS_P1;PMS_P2;Temp;Humidity;BMP_temperature;BMP_pressure;BME280_temperature;BME280_humidity;BME280_pressure;Samples;Min_cycle;Max_cycle;Signal;HPM_P1;HPM_P2
2023/08/10 00:01:22;;;;;;;;;;;;;;;16.98;100.00;99751.97;4994568;28;890;-56
2023/08/10 00:03:49;;;;;;;;;;;;;;;16.84;100.00;99759.56;4994516;28;894;-56
2023/08/10 00:06:16;;;;;;;;;;;;;;;16.77;100.00;99758.97;4994503;28;1914;-56
2023/08/10 00:08:43;;;;;;;;;;;;;;;16.74;100.00;99757.84;4994443;28;846;-56
2023/08/10 00:11:09;;;;;;;;;;;;;;;16.67;100.00;99744.91;4994543;28;807;-56
2023/08/10 00:13:36;;;;;;;;;;;;;;;16.61;100.00;99746.69;4994369;28;839;-56
2023/08/10 00:16:03;;;;;;;;;;;;;;;16.61;100.00;99749.47;4994379;28;776;-56
2023/08/10 00:18:30;;;;;;;;;;;;;;;16.68;100.00;99748.47;4994218;28;891;-56
2023/08/10 00:20:57;;;;;;;;;;;;;;;16.71;100.00;99744.78;4994317;28;848;-56
2023/08/10 00:23:24;;;;;;;;;;;;;;;16.75;100.00;99751.06;4994258;28;870;-56
2023/08/10 00:25:52;;;;;;;;;;;;;;;16.87;100.00;99752.28;4994116;28;1945;-56
2023/08/10 00:28:18;;;;;;;;;;;;;;;16.92;100.00;99746.16;4994037;28;831;-56
2023/08/10 00:30:45;;;;;;;;;;;;;;;16.85;100.00;99743.59;4994145;28;925;-56
2023/08/10 00:33:12;;;;;;;;;;;;;;;16.69;100.00;99753.59;4993925;28;891;-56
2023/08/10 00:35:39;;;;;;;;;;;;;;;16.51;100.00;99747.78;4993912;28;881;-56
2023/08/10 00:38:06;;;;;;;;;;;;;;;16.42;100.00;99737.28;4993964;28;874;-56
2023/08/10 00:40:32;;;;;;;;;;;;;;;16.42;100.00;99737.28;4993878;28;823;-56
2023/08/10 00:43:01;;;;;;;;;;;;;;;16.29;100.00;99731.69;4993917;28;886;-56
2023/08/10 00:45:30;;;;;;;;;;;;;;;16.24;100.00;99718.28;4993612;28;1911;-56
2023/08/10 00:47:58;;;;;;;;;;;;;;;16.31;100.00;99714.50;4993624;28;1299;-56
2023/08/10 00:50:24;;;;;;;;;;;;;;;16.51;100.00;99708.72;4976155;28;1283;-56
2023/08/10 00:52:52;;;;;;;;;;;;;;;16.66;100.00;99712.66;4976144;28;2552;-56
2023/08/10 00:55:18;;;;;;;;;;;;;;;16.68;100.00;99707.38;4993779;28;862;-56
2023/08/10 00:57:45;;;;;;;;;;;;;;;16.73;100.00;99715.22;4993663;28;799;-56
2023/08/10 01:00:12;;;;;;;;;;;;;;;16.75;100.00;99717.56;4993510;28;871;-56
2023/08/10 01:02:39;;;;;;;;;;;;;;;16.74;100.00;99718.78;4993338;28;839;-56
2023/08/10 01:05:06;;;;;;;;;;;;;;;16.70;100.00;99727.25;4993263;28;1910;-56
2023/08/10 01:07:37;;;;;;;;;;;;;;;16.70;100.00;99726.47;4993414;28;858;-56
2023/08/10 01:10:07;;;;;;;;;;;;;;;16.65;100.00;99729.84;4993568;28;828;-56
2023/08/10 01:12:41;;;;;;;;;;;;;;;16.58;100.00;99724.47;4993342;28;907;-56
2023/08/10 01:15:26;;;;;;;;;;;;;;;16.54;100.00;99721.78;4993233;28;839;-56
2023/08/10 01:17:56;;;;;;;;;;;;;;;16.55;100.00;99706.59;4993178;28;866;-56
2023/08/10 01:20:25;;;;;;;;;;;;;;;16.60;100.00;99706.06;4993154;28;823;-56
2023/08/10 01:22:51;;;;;;;;;;;;;;;16.59;100.00;99698.13;4993123;28;846;-56
2023/08/10 01:25:20;;;;;;;;;;;;;;;16.60;100.00;99686.53;4993020;28;1907;-56
2023/08/10 01:27:48;;;;;;;;;;;;;;;16.70;100.00;99676.25;4992942;28;871;-56
2023/08/10 01:30:15;;;;;;;;;;;;;;;16.77;100.00;99676.03;4993041;28;814;-56
2023/08/10 01:32:41;;;;;;;;;;;;;;;16.88;100.00;99693.25;4992899;28;833;-56
2023/08/10 01:35:10;;;;;;;;;;;;;;;16.87;100.00;99697.25;4992978;28;862;-56
2023/08/10 01:37:37;;;;;;;;;;;;;;;16.77;100.00;99705.94;4992917;28;831;-56
2023/08/10 01:40:12;;;;;;;;;;;;;;;16.62;100.00;99706.41;4992753;28;866;-56
2023/08/10 01:42:40;;;;;;;;;;;;;;;16.54;100.00;99707.84;4992868;28;878;-56
2023/08/10 01:45:07;;;;;;;;;;;;;;;16.52;100.00;99701.94;4992672;28;1890;-56
2023/08/10 01:47:36;;;;;;;;;;;;;;;16.50;100.00;99709.97;4992899;28;1176;-56
2023/08/10 01:50:04;;;;;;;;;;;;;;;16.47;100.00;99717.22;4992680;28;854;-56
2023/08/10 01:52:46;;;;;;;;;;;;;;;16.43;100.00;99712.94;4992664;28;866;-56
2023/08/10 01:55:13;;;;;;;;;;;;;;;16.37;100.00;99715.53;4993038;28;1204;-56
2023/08/10 01:57:40;;;;;;;;;;;;;;;16.28;100.00;99718.16;4992791;28;1171;-56
2023/08/10 02:00:07;;;;;;;;;;;;;;;16.25;100.00;99711.47;4992551;28;1150;-56
2023/08/10 02:02:34;;;;;;;;;;;;;;;16.16;100.00;99718.97;4992846;28;835;-56
2023/08/10 02:05:01;;;;;;;;;;;;;;;16.07;100.00;99720.38;4992890;28;1910;-56
2023/08/10 02:07:28;;;;;;;;;;;;;;;16.03;100.00;99719.69;4992711;28;803;-56
2023/08/10 02:09:55;;;;;;;;;;;;;;;16.06;100.00;99710.44;4992262;28;1253;-56
2023/08/10 02:12:22;;;;;;;;;;;;;;;16.09;100.00;99714.38;4992574;28;1225;-56
2023/08/10 02:14:52;;;;;;;;;;;;;;;16.07;100.00;99712.00;4992607;28;874;-56
2023/08/10 02:17:18;;;;;;;;;;;;;;;16.10;100.00;99715.91;4992552;28;886;-56
2023/08/10 02:19:45;;;;;;;;;;;;;;;16.17;100.00;99720.50;4992475;28;906;-56
2023/08/10 02:22:13;;;;;;;;;;;;;;;16.24;100.00;99720.31;4992308;28;922;-56
2023/08/10 02:24:39;;;;;;;;;;;;;;;16.25;100.00;99713.50;4992305;28;1894;-56
2023/08/10 02:27:06;;;;;;;;;;;;;;;16.20;100.00;99703.69;4992179;28;872;-56
2023/08/10 02:29:33;;;;;;;;;;;;;;;16.17;100.00;99712.91;4992287;28;834;-56
2023/08/10 02:32:00;;;;;;;;;;;;;;;16.11;100.00;99704.34;4992377;28;878;-56
2023/08/10 02:34:27;;;;;;;;;;;;;;;16.12;100.00;99697.53;4992291;28;807;-56
2023/08/10 02:36:54;;;;;;;;;;;;;;;16.10;100.00;99691.59;4992370;28;869;-56
2023/08/10 02:39:21;;;;;;;;;;;;;;;16.08;100.00;99696.06;4992201;28;823;-56
2023/08/10 02:41:48;;;;;;;;;;;;;;;16.06;100.00;99699.28;4992206;28;889;-56
2023/08/10 02:44:14;;;;;;;;;;;;;;;16.05;100.00;99705.31;4992288;28;831;-57
2023/08/10 02:46:42;;;;;;;;;;;;;;;16.03;100.00;99711.34;4992166;28;1945;-57
2023/08/10 02:49:09;;;;;;;;;;;;;;;16.03;100.00;99716.91;4992048;28;1294;-56
2023/08/10 02:51:36;;;;;;;;;;;;;;;16.03;100.00;99716.91;4992175;28;925;-56
2023/08/10 02:54:03;;;;;;;;;;;;;;;16.03;100.00;99725.28;4992259;28;842;-56
2023/08/10 02:56:29;;;;;;;;;;;;;;;15.99;100.00;99721.03;4992138;28;851;-57
2023/08/10 02:58:56;;;;;;;;;;;;;;;16.00;100.00;99723.38;4992131;28;846;-56
2023/08/10 03:01:23;;;;;;;;;;;;;;;16.01;100.00;99724.94;4992194;28;827;-57
2023/08/10 03:03:50;;;;;;;;;;;;;;;15.98;100.00;99720.25;4992256;28;873;-56
2023/08/10 03:06:17;;;;;;;;;;;;;;;15.96;100.00;99733.03;4992101;28;1975;-56
2023/08/10 03:08:44;;;;;;;;;;;;;;;15.91;100.00;99735.16;4992084;28;855;-56
2023/08/10 03:11:11;;;;;;;;;;;;;;;15.87;100.00;99737.28;4992141;28;836;-56
2023/08/10 03:13:38;;;;;;;;;;;;;;;15.85;100.00;99731.34;4992067;28;875;-56
2023/08/10 03:16:04;;;;;;;;;;;;;;;15.85;100.00;99748.06;4992127;28;807;-57
2023/08/10 03:18:31;;;;;;;;;;;;;;;15.86;100.00;99760.00;4992069;28;855;-56
2023/08/10 03:20:58;;;;;;;;;;;;;;;15.89;100.00;99736.81;4993029;28;939;-56
2023/08/10 03:23:25;;;;;;;;;;;;;;;16.00;100.00;99728.97;4995532;28;875;-56
2023/08/10 03:25:51;;;;;;;;;;;;;;;16.16;100.00;99719.72;4995625;28;1910;-56
2023/08/10 03:28:18;;;;;;;;;;;;;;;16.33;100.00;99732.34;4995312;28;1242;-56
2023/08/10 03:30:45;;;;;;;;;;;;;;;16.46;100.00;99720.44;4995221;28;858;-56
2023/08/10 03:33:12;;;;;;;;;;;;;;;16.54;100.00;99719.78;4995363;28;1217;-56
2023/08/10 03:35:39;;;;;;;;;;;;;;;16.61;100.00;99713.19;4995149;28;835;-56
2023/08/10 03:38:06;;;;;;;;;;;;;;;16.71;100.00;99711.31;4977632;28;1482;-56
2023/08/10 03:40:33;;;;;;;;;;;;;;;16.84;100.00;99716.91;4995136;28;1427;-56
2023/08/10 03:43:00;;;;;;;;;;;;;;;16.98;100.00;99718.47;4995048;28;1281;-57
2023/08/10 03:45:27;;;;;;;;;;;;;;;17.07;100.00;99715.75;4994863;28;1898;-56
2023/08/10 03:47:54;;;;;;;;;;;;;;;17.18;100.00;99721.00;4994767;28;1289;-56
2023/08/10 03:50:21;;;;;;;;;;;;;;;17.30;100.00;99715.41;4995139;28;878;-56
2023/08/10 03:52:48;;;;;;;;;;;;;;;17.45;100.00;99717.69;4995138;28;1171;-56
2023/08/10 03:55:15;;;;;;;;;;;;;;;17.57;100.00;99711.28;4995038;28;784;-56
2023/08/10 03:57:42;;;;;;;;;;;;;;;17.72;100.00;99708.75;4994838;28;1191;-57
2023/08/10 04:00:10;;;;;;;;;;;;;;;17.80;100.00;99710.06;4994861;28;824;-56
2023/08/10 04:02:36;;;;;;;;;;;;;;;17.91;100.00;99712.50;4994770;28;1192;-57
2023/08/10 04:05:06;;;;;;;;;;;;;;;18.07;100.00;99708.72;4994618;28;1918;-56
2023/08/10 04:07:33;;;;;;;;;;;;;;;18.24;100.00;99706.47;4994588;28;850;-56
2023/08/10 04:10:00;;;;;;;;;;;;;;;18.34;100.00;99713.69;4976950;28;1576;-56
2023/08/10 04:12:27;;;;;;;;;;;;;;;18.35;100.00;99704.84;4994379;28;799;-56
2023/08/10 04:14:54;;;;;;;;;;;;;;;18.38;100.00;99711.53;4994410;28;849;-56
2023/08/10 04:17:21;;;;;;;;;;;;;;;18.49;100.00;99711.91;4994482;28;898;-57
2023/08/10 04:19:48;;;;;;;;;;;;;;;18.64;100.00;99702.94;4977048;28;815;-56
2023/08/10 04:22:15;;;;;;;;;;;;;;;18.78;100.00;99696.81;4994305;28;819;-56
2023/08/10 04:24:42;;;;;;;;;;;;;;;18.92;100.00;99701.81;4994155;28;1895;-56
2023/08/10 04:27:09;;;;;;;;;;;;;;;18.93;100.00;99702.63;4994205;28;826;-58
2023/08/10 04:29:36;;;;;;;;;;;;;;;18.88;100.00;99706.00;4994127;28;814;-56
2023/08/10 04:32:03;;;;;;;;;;;;;;;18.85;100.00;99699.31;4994072;28;874;-58
2023/08/10 04:34:32;;;;;;;;;;;;;;;18.84;100.00;99708.97;4994036;28;827;-56
2023/08/10 04:36:58;;;;;;;;;;;;;;;18.87;100.00;99712.88;4993970;28;898;-56
2023/08/10 04:39:27;;;;;;;;;;;;;;;18.91;100.00;99716.31;4993934;28;878;-56
2023/08/10 04:41:53;;;;;;;;;;;;;;;19.01;100.00;99712.31;4993882;28;851;-56
2023/08/10 04:44:20;;;;;;;;;;;;;;;19.12;100.00;99701.41;4993795;28;819;-56
2023/08/10 04:46:47;;;;;;;;;;;;;;;19.26;100.00;99708.44;4994060;28;1882;-56
2023/08/10 04:49:14;;;;;;;;;;;;;;;19.48;100.00;99707.53;4976157;28;1461;-56
2023/08/10 04:51:41;;;;;;;;;;;;;;;19.81;100.00;99701.34;4993689;28;847;-56
2023/08/10 04:54:12;;;;;;;;;;;;;;;19.82;100.00;99697.28;4993703;28;875;-57
2023/08/10 04:56:39;;;;;;;;;;;;;;;19.89;100.00;99682.94;4993503;28;894;-56
2023/08/10 04:59:06;;;;;;;;;;;;;;;19.89;100.00;99680.16;4993756;28;917;-56
2023/08/10 05:01:33;;;;;;;;;;;;;;;19.78;100.00;99681.41;4993439;28;851;-55
2023/08/10 05:04:00;;;;;;;;;;;;;;;19.63;100.00;99685.25;4993774;28;831;-56
2023/08/10 05:06:27;;;;;;;;;;;;;;;19.56;100.00;99677.94;4993373;28;1903;-55
2023/08/10 05:08:54;;;;;;;;;;;;;;;19.57;100.00;99677.47;4993574;28;846;-56
2023/08/10 05:11:21;;;;;;;;;;;;;;;19.67;100.00;99688.69;4993341;28;827;-55
2023/08/10 05:13:48;;;;;;;;;;;;;;;19.74;100.00;99697.59;4993276;28;909;-55
2023/08/10 05:16:17;;;;;;;;;;;;;;;19.94;100.00;99691.50;4993548;28;803;-55
2023/08/10 05:18:44;;;;;;;;;;;;;;;20.24;100.00;99688.16;4993111;28;862;-56
2023/08/10 05:21:11;;;;;;;;;;;;;;;20.54;100.00;99683.53;4993218;28;803;-56
2023/08/10 05:23:39;;;;;;;;;;;;;;;20.75;100.00;99684.56;4993078;28;831;-55
2023/08/10 05:26:07;;;;;;;;;;;;;;;20.62;100.00;99690.41;4993315;28;1926;-55
2023/08/10 05:28:34;;;;;;;;;;;;;;;20.45;100.00;99689.19;4992959;28;903;-55
2023/08/10 05:31:01;;;;;;;;;;;;;;;20.30;100.00;99678.63;4993003;28;837;-55
2023/08/10 05:33:27;;;;;;;;;;;;;;;20.21;100.00;99675.84;4992876;28;865;-55
2023/08/10 05:35:54;;;;;;;;;;;;;;;20.12;100.00;99684.28;4992958;28;816;-55
2023/08/10 05:38:21;;;;;;;;;;;;;;;20.14;100.00;99688.19;4992832;28;890;-55
2023/08/10 05:40:48;;;;;;;;;;;;;;;20.22;100.00;99685.81;4993189;28;819;-55
2023/08/10 05:43:14;;;;;;;;;;;;;;;20.41;100.00;99686.53;4992223;28;820;-56
2023/08/10 05:45:41;;;;;;;;;;;;;;;20.66;100.00;99673.38;4992692;28;1886;-55
2023/08/10 05:48:11;;;;;;;;;;;;;;;20.77;100.00;99671.59;4992626;28;1338;-55
2023/08/10 05:50:38;;;;;;;;;;;;;;;20.81;100.00;99679.84;4992691;28;835;-52
2023/08/10 05:53:06;;;;;;;;;;;;;;;20.87;100.00;99677.94;4992701;28;807;-55
2023/08/10 05:55:33;;;;;;;;;;;;;;;21.01;100.00;99676.44;4992733;28;854;-55
2023/08/10 05:58:00;;;;;;;;;;;;;;;21.30;100.00;99675.78;4992491;28;819;-55
2023/08/10 06:00:28;;;;;;;;;;;;;;;21.77;100.00;99676.22;4992680;28;894;-55
2023/08/10 06:02:55;;;;;;;;;;;;;;;22.27;100.00;99678.38;4992566;28;836;-55
2023/08/10 06:05:22;;;;;;;;;;;;;;;22.56;100.00;99681.16;4992536;28;1914;-55
2023/08/10 06:07:49;;;;;;;;;;;;;;;22.48;100.00;99674.38;4992488;28;852;-55
2023/08/10 06:10:16;;;;;;;;;;;;;;;22.83;100.00;99682.84;4992583;28;890;-56
2023/08/10 06:12:43;;;;;;;;;;;;;;;22.91;100.00;99674.75;4992590;28;958;-55
2023/08/10 06:15:10;;;;;;;;;;;;;;;22.90;100.00;99686.53;4975045;28;930;-56
2023/08/10 06:17:37;;;;;;;;;;;;;;;23.00;100.00;99680.31;4992518;28;847;-57
2023/08/10 06:20:09;;;;;;;;;;;;;;;23.26;100.00;99690.88;4992701;28;819;-54
2023/08/10 06:22:38;;;;;;;;;;;;;;;23.80;100.00;99696.91;4992590;28;1312;-56
2023/08/10 06:25:06;;;;;;;;;;;;;;;24.19;100.00;99696.53;4992427;28;1898;-55
2023/08/10 06:27:35;;;;;;;;;;;;;;;24.27;100.00;99699.69;4992256;28;1030;-55
2023/08/10 06:30:03;;;;;;;;;;;;;;;24.58;100.00;99693.28;4992223;28;923;-55
2023/08/10 06:32:31;;;;;;;;;;;;;;;25.05;100.00;99695.91;4992590;28;853;-55
2023/08/10 06:34:58;;;;;;;;;;;;;;;25.40;99.88;99691.97;4992313;28;937;-55
2023/08/10 06:37:25;;;;;;;;;;;;;;;25.40;98.89;99698.41;4992241;28;826;-55
2023/08/10 06:39:51;;;;;;;;;;;;;;;25.58;99.25;99705.69;4992343;28;895;-55
2023/08/10 06:42:18;;;;;;;;;;;;;;;25.60;98.43;99705.16;4992207;28;811;-56
2023/08/10 06:44:44;;;;;;;;;;;;;;;25.95;96.78;99693.44;4992107;28;1898;-56
2023/08/10 06:47:11;;;;;;;;;;;;;;;26.25;94.46;99688.06;4992303;28;1185;-55
2023/08/10 06:49:38;;;;;;;;;;;;;;;26.18;94.00;99691.41;4992280;28;804;-56
2023/08/10 06:52:05;;;;;;;;;;;;;;;26.04;95.63;99686.75;4992246;28;1042;-55
2023/08/10 06:54:31;;;;;;;;;;;;;;;26.06;94.79;99692.69;4992713;28;872;-54
2023/08/10 06:56:58;;;;;;;;;;;;;;;26.30;95.05;99716.91;4995685;28;829;-55
2023/08/10 06:59:25;;;;;;;;;;;;;;;26.63;90.38;99707.66;4996201;28;882;-55
2023/08/10 07:01:52;;;;;;;;;;;;;;;26.61;90.02;99702.50;4995669;28;855;-56
2023/08/10 07:04:19;;;;;;;;;;;;;;;25.98;92.00;99695.22;4995698;28;887;-55
2023/08/10 07:06:46;;;;;;;;;;;;;;;25.49;95.55;99682.47;4995688;28;1910;-55
2023/08/10 07:09:12;;;;;;;;;;;;;;;25.84;94.36;99691.34;4995648;28;862;-53
2023/08/10 07:11:39;;;;;;;;;;;;;;;26.71;90.71;99688.06;4995655;28;859;-56
2023/08/10 07:14:06;;;;;;;;;;;;;;;27.68;86.62;99688.00;4995838;28;890;-55
2023/08/10 07:16:32;;;;;;;;;;;;;;;28.37;83.54;99691.16;4995616;28;863;-55
2023/08/10 07:19:00;;;;;;;;;;;;;;;28.18;83.08;99693.91;4995535;28;858;-56
2023/08/10 07:21:27;;;;;;;;;;;;;;;27.44;85.80;99690.69;4995522;28;828;-54
2023/08/10 07:23:53;;;;;;;;;;;;;;;26.92;87.99;99688.53;4995342;28;839;-55
2023/08/10 07:26:21;;;;;;;;;;;;;;;26.94;89.02;99686.72;4983833;28;1939;-55
2023/08/10 07:28:47;;;;;;;;;;;;;;;27.04;88.16;99687.97;4976051;28;965;-55
2023/08/10 07:31:14;;;;;;;;;;;;;;;26.60;90.17;99681.09;4975866;28;849;-55
2023/08/10 07:33:40;;;;;;;;;;;;;;;25.95;92.63;99679.28;4975861;28;867;-55
2023/08/10 07:36:07;;;;;;;;;;;;;;;25.80;94.92;99681.56;4975863;28;874;-56
2023/08/10 07:38:33;;;;;;;;;;;;;;;26.03;93.85;99685.19;4976083;28;1300;-54
2023/08/10 07:41:00;;;;;;;;;;;;;;;25.84;94.39;99691.34;4975671;28;1242;-56
2023/08/10 07:43:27;;;;;;;;;;;;;;;25.46;96.25;99685.03;4975778;28;1240;-56
2023/08/10 07:45:54;;;;;;;;;;;;;;;25.34;97.35;99694.75;4975852;28;1982;-56
2023/08/10 07:48:21;;;;;;;;;;;;;;;25.39;97.70;99685.53;4975374;28;1476;-56
2023/08/10 07:50:49;;;;;;;;;;;;;;;25.43;97.50;99683.25;4975444;28;1207;-56
2023/08/10 07:53:16;;;;;;;;;;;;;;;25.42;97.21;99678.09;4975561;28;851;-55
2023/08/10 07:55:43;;;;;;;;;;;;;;;25.57;97.59;99677.88;4975434;28;842;-56
2023/08/10 07:58:10;;;;;;;;;;;;;;;25.81;95.27;99677.41;4975398;28;1372;-56
2023/08/10 08:00:38;;;;;;;;;;;;;;;25.74;95.34;99663.78;4975541;28;824;-55
2023/08/10 08:03:05;;;;;;;;;;;;;;;26.05;93.82;99666.44;4975306;28;854;-55
2023/08/10 08:05:37;;;;;;;;;;;;;;;26.43;93.43;99672.59;4975264;28;1970;-56
2023/08/10 08:08:05;;;;;;;;;;;;;;;26.88;91.14;99683.13;4974388;28;907;-56
2023/08/10 08:10:32;;;;;;;;;;;;;;;27.03;90.73;99689.25;4975071;28;823;-56
2023/08/10 08:12:59;;;;;;;;;;;;;;;27.21;89.04;99690.75;4975098;28;840;-56
2023/08/10 08:15:26;;;;;;;;;;;;;;;27.55;87.23;99695.56;4974941;28;831;-55
2023/08/10 08:18:11;;;;;;;;;;;;;;;27.64;86.84;99693.19;4975009;28;851;-55
2023/08/10 08:20:38;;;;;;;;;;;;;;;27.82;86.13;99685.31;4974819;28;918;-56
2023/08/10 08:23:05;;;;;;;;;;;;;;;28.12;85.08;99681.81;4975215;28;827;-56
2023/08/10 08:25:32;;;;;;;;;;;;;;;28.63;84.18;99685.00;4974601;28;1886;-56
2023/08/10 08:27:59;;;;;;;;;;;;;;;29.24;82.46;99694.97;4974872;28;866;-56
2023/08/10 08:30:27;;;;;;;;;;;;;;;29.48;75.98;99705.53;4974692;28;894;-56
2023/08/10 08:32:54;;;;;;;;;;;;;;;28.83;75.54;99717.91;4974761;28;863;-56
2023/08/10 08:35:21;;;;;;;;;;;;;;;28.01;77.69;99697.63;4974770;28;930;-56
2023/08/10 08:37:48;;;;;;;;;;;;;;;27.52;79.43;99699.44;4974571;28;870;-56
2023/08/10 08:40:14;;;;;;;;;;;;;;;27.04;80.76;99696.50;4974727;28;831;-56
2023/08/10 08:42:41;;;;;;;;;;;;;;;27.09;80.87;99697.75;4974487;28;820;-56
2023/08/10 08:45:08;;;;;;;;;;;;;;;27.18;80.16;99702.38;4974370;28;1887;-57
2023/08/10 08:47:36;;;;;;;;;;;;;;;27.34;80.06;99703.66;4974456;28;1251;-56
2023/08/10 08:50:03;;;;;;;;;;;;;;;27.34;79.31;99701.56;4974449;28;870;-56
2023/08/10 08:52:31;;;;;;;;;;;;;;;27.56;78.67;99691.41;4974342;28;812;-56
2023/08/10 08:54:58;;;;;;;;;;;;;;;27.14;79.40;99690.53;4974356;28;878;-57
2023/08/10 08:57:24;;;;;;;;;;;;;;;26.73;81.11;99691.16;4974227;28;891;-57
2023/08/10 08:59:51;;;;;;;;;;;;;;;26.61;81.69;99682.66;4974119;28;852;-57
2023/08/10 09:02:17;;;;;;;;;;;;;;;26.42;82.47;99693.72;4974174;28;854;-57
2023/08/10 09:04:44;;;;;;;;;;;;;;;26.54;82.32;99683.13;4974135;28;1938;-56
2023/08/10 09:07:12;;;;;;;;;;;;;;;27.02;80.95;99687.72;4974057;28;882;-57
2023/08/10 09:09:39;;;;;;;;;;;;;;;27.67;78.00;99680.78;4974117;28;814;-56
2023/08/10 09:12:24;;;;;;;;;;;;;;;28.05;75.89;99685.97;4974010;28;862;-56
2023/08/10 09:15:05;;;;;;;;;;;;;;;28.42;74.29;99688.28;4973935;28;914;-57
2023/08/10 09:46:49;;;;;;;;;;;;;;;28.70;65.79;99651.09;5890966;23;2007;-57
2023/08/10 09:49:17;;;;;;;;;;;;;;;28.48;64.92;99646.38;4935227;29;823;-57
2023/08/10 09:51:43;;;;;;;;;;;;;;;28.40;65.33;99650.31;4918094;29;863;-57
2023/08/10 09:54:09;;;;;;;;;;;;;;;28.25;65.54;99639.31;4934983;29;872;-56
2023/08/10 09:56:36;;;;;;;;;;;;;;;28.09;66.02;99638.94;4934888;29;843;-59
2023/08/10 09:59:02;;;;;;;;;;;;;;;27.94;66.80;99634.94;4935001;29;879;-56
2023/08/10 10:01:29;;;;;;;;;;;;;;;28.06;66.79;99631.50;4934677;29;913;-58
2023/08/10 10:03:56;;;;;;;;;;;;;;;28.16;66.30;99636.84;4934851;29;820;-58
2023/08/10 10:06:23;;;;;;;;;;;;;;;27.92;66.56;99632.63;4934746;29;1919;-58
2023/08/10 10:08:55;;;;;;;;;;;;;;;27.98;66.75;99627.69;4934796;29;817;-59
2023/08/10 10:11:23;;;;;;;;;;;;;;;28.71;64.61;99627.00;4934614;29;944;-58
2023/08/10 10:13:50;;;;;;;;;;;;;;;29.21;63.95;99633.47;4934747;29;870;-58
2023/08/10 10:16:18;;;;;;;;;;;;;;;29.80;62.16;99628.00;4934563;29;849;-59
2023/08/10 10:18:45;;;;;;;;;;;;;;;29.73;60.64;99628.63;4934658;29;843;-59
2023/08/10 10:21:12;;;;;;;;;;;;;;;29.74;60.73;99623.69;4934602;29;840;-58
2023/08/10 10:23:41;;;;;;;;;;;;;;;29.70;60.80;99619.09;4934521;29;851;-58
2023/08/10 10:26:08;;;;;;;;;;;;;;;30.13;60.52;99608.81;4934551;29;1898;-58
2023/08/10 10:28:34;;;;;;;;;;;;;;;30.36;58.69;99606.34;4934494;29;862;-58
2023/08/10 10:31:10;;;;;;;;;;;;;;;30.35;59.02;99610.53;4937401;29;831;-59
2023/08/10 10:33:40;;;;;;;;;;;;;;;31.05;57.96;99613.09;4938319;29;875;-58
2023/08/10 10:36:08;;;;;;;;;;;;;;;31.72;56.15;99612.94;4938426;29;819;-58
2023/08/10 10:38:36;;;;;;;;;;;;;;;32.14;51.92;99607.28;4938495;29;876;-58
2023/08/10 10:41:16;;;;;;;;;;;;;;;32.12;50.16;99604.22;4938316;29;891;-58
2023/08/10 10:43:46;;;;;;;;;;;;;;;32.18;49.12;99615.47;4938801;29;843;-57
2023/08/10 10:46:31;;;;;;;;;;;;;;;32.20;49.16;99607.13;4938259;29;1964;-58
2023/08/10 10:49:00;;;;;;;;;;;;;;;31.57;50.27;99596.41;4956396;29;1472;-58
2023/08/10 10:51:29;;;;;;;;;;;;;;;30.87;50.26;99591.91;4957451;28;866;-58
2023/08/10 10:53:57;;;;;;;;;;;;;;;30.88;50.43;99590.63;4957132;28;886;-58
2023/08/10 10:56:27;;;;;;;;;;;;;;;31.36;49.81;99592.72;4956093;29;981;-58
2023/08/10 10:58:54;;;;;;;;;;;;;;;32.33;46.37;99587.03;4957042;28;863;-58
2023/08/10 11:01:21;;;;;;;;;;;;;;;33.15;43.66;99595.16;4957155;28;854;-58
2023/08/10 11:03:54;;;;;;;;;;;;;;;33.40;41.87;99601.19;4957021;28;807;-58
2023/08/10 11:06:23;;;;;;;;;;;;;;;33.34;41.65;99597.72;4957178;28;2011;-58
2023/08/10 11:08:55;;;;;;;;;;;;;;;31.97;43.84;99584.03;4956961;28;842;-58
2023/08/10 11:11:24;;;;;;;;;;;;;;;30.27;48.33;99595.34;4957178;28;859;-59
2023/08/10 11:13:52;;;;;;;;;;;;;;;29.00;52.96;99601.13;4956929;28;889;-59
2023/08/10 11:16:19;;;;;;;;;;;;;;;28.65;54.63;99591.44;4956801;28;799;-58
2023/08/10 11:18:47;;;;;;;;;;;;;;;28.34;56.19;99593.53;4956834;28;894;-58
2023/08/10 11:21:14;;;;;;;;;;;;;;;28.21;57.01;99593.41;4956724;28;863;-58
2023/08/10 11:23:41;;;;;;;;;;;;;;;28.04;57.91;99591.47;4956628;28;1062;-58
2023/08/10 11:26:08;;;;;;;;;;;;;;;27.79;58.19;99587.00;4956574;28;1894;-58
2023/08/10 11:28:36;;;;;;;;;;;;;;;27.68;57.47;99582.94;4956532;28;898;-57
2023/08/10 11:31:06;;;;;;;;;;;;;;;27.69;58.89;99578.03;4956633;28;894;-59
2023/08/10 11:33:32;;;;;;;;;;;;;;;28.20;57.37;99586.94;4956484;28;875;-59
2023/08/10 11:35:59;;;;;;;;;;;;;;;28.70;55.95;99584.91;4956511;28;814;-58
2023/08/10 11:38:26;;;;;;;;;;;;;;;29.34;54.09;99590.09;4956350;28;843;-58
2023/08/10 11:40:55;;;;;;;;;;;;;;;29.67;52.93;99574.56;4955980;28;845;-58
2023/08/10 11:43:25;;;;;;;;;;;;;;;30.05;51.32;99579.44;4955902;28;878;-58
2023/08/10 11:45:54;;;;;;;;;;;;;;;31.00;49.92;99576.88;4956252;28;1951;-58
2023/08/10 11:48:22;;;;;;;;;;;;;;;31.14;48.22;99575.53;4955987;28;1236;-58
2023/08/10 11:50:58;;;;;;;;;;;;;;;30.96;47.52;99582.16;4956407;28;865;-58
2023/08/10 11:53:25;;;;;;;;;;;;;;;30.43;48.99;99576.47;4956141;28;923;-58
2023/08/10 11:55:53;;;;;;;;;;;;;;;29.52;50.58;99577.13;4956182;29;833;-58
2023/08/10 11:58:20;;;;;;;;;;;;;;;29.26;52.34;99586.31;4956091;28;806;-59
2023/08/10 12:00:50;;;;;;;;;;;;;;;29.58;51.67;99579.91;4956099;28;831;-58
2023/08/10 12:03:21;;;;;;;;;;;;;;;29.82;51.53;99581.88;4955996;28;890;-59
2023/08/10 12:05:51;;;;;;;;;;;;;;;29.50;51.31;99577.66;4955839;28;1915;-59
2023/08/10 12:08:19;;;;;;;;;;;;;;;29.09;52.35;99590.16;4955957;28;904;-58
2023/08/10 12:10:50;;;;;;;;;;;;;;;28.61;53.53;99583.19;4955794;28;803;-57
2023/08/10 12:13:18;;;;;;;;;;;;;;;28.22;55.54;99577.88;4955786;28;946;-58
2023/08/10 12:15:53;;;;;;;;;;;;;;;28.41;56.19;99583.66;4955618;28;870;-59
2023/08/10 12:18:20;;;;;;;;;;;;;;;28.23;56.79;99593.63;4955840;28;815;-58
2023/08/10 12:20:51;;;;;;;;;;;;;;;28.84;55.95;99578.00;4955598;28;895;-58
2023/08/10 12:23:18;;;;;;;;;;;;;;;28.96;54.87;99580.75;4955625;28;831;-58
2023/08/10 12:25:48;;;;;;;;;;;;;;;28.38;55.91;99591.19;4955485;28;1890;-58
2023/08/10 12:28:16;;;;;;;;;;;;;;;27.74;57.17;99605.63;4955519;28;865;-58
2023/08/10 12:30:44;;;;;;;;;;;;;;;27.20;59.89;99604.09;4955519;28;811;-58
2023/08/10 12:33:11;;;;;;;;;;;;;;;26.67;62.94;99600.44;4954144;29;1163;-58
2023/08/10 12:35:38;;;;;;;;;;;;;;;26.14;66.48;99607.97;4955360;28;866;-58
2023/08/10 12:38:06;;;;;;;;;;;;;;;24.85;78.99;99601.47;4955350;28;836;-58
2023/08/10 12:40:33;;;;;;;;;;;;;;;23.81;96.54;99593.28;4955319;28;800;-58
2023/08/10 12:43:00;;;;;;;;;;;;;;;22.21;100.00;99593.81;4955160;28;911;-58
2023/08/10 12:45:27;;;;;;;;;;;;;;;21.31;100.00;99604.25;4955029;28;1949;-58
2023/08/10 12:47:56;;;;;;;;;;;;;;;20.94;100.00;99620.63;4954902;28;1280;-58
2023/08/10 12:50:23;;;;;;;;;;;;;;;20.83;100.00;99631.63;4955166;28;820;-58
2023/08/10 12:52:50;;;;;;;;;;;;;;;20.57;100.00;99644.09;4953609;28;1323;-59
2023/08/10 12:55:17;;;;;;;;;;;;;;;20.03;100.00;99648.63;4955042;28;815;-60
2023/08/10 12:57:45;;;;;;;;;;;;;;;19.71;100.00;99642.44;4954961;28;1589;-59
2023/08/10 13:00:21;;;;;;;;;;;;;;;19.60;100.00;99647.72;4954900;28;949;-60
2023/08/10 13:02:48;;;;;;;;;;;;;;;19.54;100.00;99641.19;4954848;28;966;-60
2023/08/10 13:05:15;;;;;;;;;;;;;;;19.51;100.00;99640.09;4954662;28;1910;-60
2023/08/10 13:07:43;;;;;;;;;;;;;;;19.47;100.00;99636.69;4954829;28;886;-61
2023/08/10 13:10:10;;;;;;;;;;;;;;;19.31;100.00;99640.59;4953368;29;1393;-63
2023/08/10 13:12:37;;;;;;;;;;;;;;;19.33;100.00;99648.50;4954720;28;871;-65
2023/08/10 13:15:07;;;;;;;;;;;;;;;19.51;100.00;99642.91;4954454;28;997;-66
2023/08/10 13:17:34;;;;;;;;;;;;;;;19.68;100.00;99643.38;4954653;28;902;-67
2023/08/10 13:20:02;;;;;;;;;;;;;;;19.70;100.00;99640.91;4953276;29;879;-68
2023/08/10 13:22:33;;;;;;;;;;;;;;;19.57;100.00;99640.28;4953327;29;1292;-68
2023/08/10 13:25:01;;;;;;;;;;;;;;;19.49;100.00;99637.00;4954322;28;1894;-68
2023/08/10 13:27:28;;;;;;;;;;;;;;;19.69;100.00;99647.72;4954523;28;858;-68
2023/08/10 13:29:54;;;;;;;;;;;;;;;19.93;100.00;99647.09;4953170;29;890;-68